createdAt,value
2016-12-23T00:00:32.874Z,1.34
2016-12-23T00:01:41.568Z,1.32
2016-12-23T00:02:50.264Z,1.32
2016-12-23T00:03:58.953Z,1.32
2016-12-23T00:05:07.641Z,1.32
2016-12-23T00:06:16.340Z,1.27
2016-12-23T00:07:25.033Z,1.3
2016-12-23T00:08:33.724Z,1.21
2016-12-23T00:09:42.417Z,1.21
2016-12-23T00:10:51.106Z,1.25
2016-12-23T00:11:59.806Z,1.28
2016-12-23T00:13:08.507Z,1.25
2016-12-23T00:14:17.196Z,1.2
2016-12-23T00:15:25.892Z,1.21
2016-12-23T00:16:34.588Z,1.16
2016-12-23T00:17:43.278Z,1.2
2016-12-23T00:18:51.996Z,1.14
2016-12-23T00:20:00.687Z,1.18
2016-12-23T00:21:09.384Z,1.22
2016-12-23T00:22:18.073Z,1.28
2016-12-23T00:23:26.764Z,1.38
2016-12-23T00:24:35.455Z,1.3
2016-12-23T00:25:44.146Z,1.3
2016-12-23T00:26:52.836Z,1.3
2016-12-23T00:28:01.526Z,1.38
2016-12-23T00:29:10.218Z,1.43
2016-12-23T00:30:18.914Z,1.39
2016-12-23T00:31:27.606Z,1.43
2016-12-23T00:32:36.301Z,1.5
2016-12-23T00:33:44.994Z,1.5
2016-12-23T00:34:53.687Z,1.67
2016-12-23T00:36:02.377Z,1.6
2016-12-23T00:37:11.066Z,1.6
2016-12-23T00:38:19.758Z,1.6
2016-12-23T00:39:28.446Z,1.66
2016-12-23T00:40:37.147Z,1.63
2016-12-23T00:41:45.841Z,1.66
2016-12-23T00:42:54.534Z,1.67
2016-12-23T00:44:03.222Z,1.67
2016-12-23T00:45:11.910Z,1.61
2016-12-23T00:46:20.604Z,1.6
2016-12-23T00:47:29.301Z,1.64
2016-12-23T00:48:37.994Z,1.71
2016-12-23T00:49:47.007Z,1.68
2016-12-23T00:50:55.700Z,1.7
2016-12-23T00:52:04.389Z,1.68
2016-12-23T00:53:13.080Z,1.68
2016-12-23T00:54:21.771Z,1.63
2016-12-23T00:55:30.461Z,1.67
2016-12-23T00:56:39.155Z,1.64
2016-12-23T00:57:47.847Z,1.7
2016-12-23T00:58:56.536Z,1.64
2016-12-23T01:00:05.232Z,1.66
2016-12-23T01:01:13.925Z,1.6
2016-12-23T01:02:22.610Z,1.6
2016-12-23T01:03:31.302Z,1.61
2016-12-23T01:04:39.992Z,1.66
2016-12-23T01:05:48.687Z,1.67
2016-12-23T01:06:57.389Z,1.68
2016-12-23T01:08:06.398Z,1.71
2016-12-23T01:09:15.094Z,1.71
2016-12-23T01:10:23.787Z,1.76
2016-12-23T01:11:32.481Z,1.71
2016-12-23T01:12:41.172Z,1.75
2016-12-23T01:13:49.862Z,1.78
2016-12-23T01:14:58.553Z,1.84
2016-12-23T01:16:07.246Z,1.84
2016-12-23T01:17:15.941Z,1.84
2016-12-23T01:18:24.632Z,1.84
2016-12-23T01:19:33.324Z,1.79
2016-12-23T01:20:42.016Z,1.71
2016-12-23T01:21:50.711Z,1.7
2016-12-23T01:22:59.400Z,1.63
2016-12-23T01:24:08.093Z,1.7
2016-12-23T01:25:16.783Z,1.6
2016-12-23T01:26:25.479Z,1.63
2016-12-23T01:27:34.181Z,1.7
2016-12-23T01:28:42.870Z,1.67
2016-12-23T01:29:51.565Z,1.76
2016-12-23T01:31:00.259Z,1.74
2016-12-23T01:32:08.953Z,1.71
2016-12-23T01:33:17.650Z,1.67
2016-12-23T01:34:26.376Z,1.63
2016-12-23T01:35:35.071Z,1.64
2016-12-23T01:36:43.763Z,1.56
2016-12-23T01:37:52.453Z,1.57
2016-12-23T01:39:01.145Z,1.53
2016-12-23T01:40:09.842Z,1.56
2016-12-23T01:41:18.534Z,1.52
2016-12-23T01:42:27.227Z,1.53
2016-12-23T01:43:35.918Z,1.53
2016-12-23T01:44:44.613Z,1.46
2016-12-23T01:45:53.302Z,1.49
2016-12-23T01:47:01.994Z,1.36
2016-12-23T01:48:10.683Z,1.43
2016-12-23T01:49:19.376Z,1.45
2016-12-23T01:50:28.068Z,1.34
2016-12-23T01:51:36.763Z,1.4
2016-12-23T01:52:45.456Z,1.32
2016-12-23T01:53:54.144Z,1.32
2016-12-23T01:55:03.157Z,1.28
2016-12-23T01:56:11.849Z,1.3
2016-12-23T01:57:20.540Z,1.27
2016-12-23T01:58:29.233Z,1.25
2016-12-23T01:59:37.923Z,1.18
2016-12-23T02:00:46.615Z,1.25
2016-12-23T02:01:55.307Z,1.24
2016-12-23T02:03:04.008Z,1.31
2016-12-23T02:04:12.731Z,1.39
2016-12-23T02:05:21.735Z,1.3
2016-12-23T02:06:30.429Z,1.31
2016-12-23T02:07:39.120Z,1.31
2016-12-23T02:08:47.807Z,1.38
2016-12-23T02:09:56.499Z,1.42
2016-12-23T02:11:05.189Z,1.48
2016-12-23T02:12:13.880Z,1.34
2016-12-23T02:13:22.568Z,1.42
2016-12-23T02:14:31.262Z,1.32
2016-12-23T02:15:39.958Z,1.3
2016-12-23T02:16:48.651Z,1.3
2016-12-23T02:17:57.343Z,1.25
2016-12-23T02:19:06.066Z,1.25
2016-12-23T02:20:14.756Z,1.27
2016-12-23T02:21:23.445Z,1.22
2016-12-23T02:22:32.134Z,1.24
2016-12-23T02:23:40.827Z,1.34
2016-12-23T02:24:49.515Z,1.31
2016-12-23T02:25:58.207Z,1.31
2016-12-23T02:27:06.900Z,1.36
2016-12-23T02:28:15.594Z,1.31
2016-12-23T02:29:24.282Z,1.38
2016-12-23T02:30:32.974Z,1.48
2016-12-23T02:31:41.669Z,1.42
2016-12-23T02:32:50.360Z,1.43
2016-12-23T02:33:59.051Z,1.38
2016-12-23T02:35:07.747Z,1.32
2016-12-23T02:36:16.471Z,1.39
2016-12-23T02:37:25.160Z,1.4
2016-12-23T02:38:33.848Z,1.43
2016-12-23T02:39:42.539Z,1.42
2016-12-23T02:40:51.232Z,1.36
2016-12-23T02:41:59.958Z,1.42
2016-12-23T02:43:08.650Z,1.46
2016-12-23T02:44:17.339Z,1.48
2016-12-23T02:45:26.033Z,1.49
2016-12-23T02:46:35.047Z,1.5
2016-12-23T02:47:43.735Z,1.5
2016-12-23T02:48:52.427Z,1.5
2016-12-23T02:50:01.117Z,1.48
2016-12-23T02:51:09.813Z,1.53
2016-12-23T02:52:18.501Z,1.61
2016-12-23T02:53:27.191Z,1.56
2016-12-23T02:54:35.882Z,1.49
2016-12-23T02:55:44.576Z,1.43
2016-12-23T02:56:53.268Z,1.46
2016-12-23T02:58:01.959Z,1.46
2016-12-23T02:59:10.657Z,1.4
2016-12-23T03:00:19.346Z,1.39
2016-12-23T03:01:28.041Z,1.32
2016-12-23T03:02:36.764Z,1.39
2016-12-23T03:03:45.451Z,1.39
2016-12-23T03:04:54.140Z,1.3
2016-12-23T03:06:02.844Z,1.28
2016-12-23T03:07:11.568Z,1.28
2016-12-23T03:08:20.257Z,1.22
2016-12-23T03:09:28.947Z,1.27
2016-12-23T03:10:37.642Z,1.18
2016-12-23T03:11:46.651Z,1.18
2016-12-23T03:12:55.338Z,1.16
2016-12-23T03:14:04.030Z,1.07
2016-12-23T03:15:12.724Z,1.06
2016-12-23T03:16:21.414Z,1.02
2016-12-23T03:17:30.135Z,1.03
2016-12-23T03:18:38.830Z,1.03
2016-12-23T03:19:47.520Z,0.94
2016-12-23T03:20:56.213Z,0.91
2016-12-23T03:22:04.919Z,0.91
2016-12-23T03:23:13.928Z,0.91
2016-12-23T03:24:22.624Z,0.92
2016-12-23T03:25:31.312Z,0.88
2016-12-23T03:26:40.008Z,0.81
2016-12-23T03:27:48.696Z,0.77
2016-12-23T03:28:57.383Z,0.81
2016-12-23T03:30:06.079Z,0.82
2016-12-23T03:31:14.776Z,0.92
2016-12-23T03:32:23.471Z,0.96
2016-12-23T03:33:32.166Z,1.02
2016-12-23T03:34:41.176Z,1.04
2016-12-23T03:35:49.872Z,1.02
2016-12-23T03:36:58.881Z,1.12
2016-12-23T03:38:07.574Z,1.04
2016-12-23T03:39:16.265Z,1.07
2016-12-23T03:40:24.959Z,1.03
2016-12-23T03:41:33.649Z,1.09
2016-12-23T03:42:42.341Z,1.06
2016-12-23T03:43:51.030Z,1.09
2016-12-23T03:44:59.726Z,1.16
2016-12-23T03:46:08.417Z,1.16
2016-12-23T03:47:17.109Z,1.18
2016-12-23T03:48:25.802Z,1.02
2016-12-23T03:49:34.492Z,1.18
2016-12-23T03:50:43.187Z,1.12
2016-12-23T03:51:51.876Z,1.12
2016-12-23T03:53:00.573Z,1.1
2016-12-23T03:54:09.272Z,1.16
2016-12-23T03:55:17.965Z,1.13
2016-12-23T03:56:26.661Z,1.09
2016-12-23T03:57:35.352Z,1.1
2016-12-23T03:58:44.045Z,1.1
2016-12-23T03:59:52.742Z,1.07
2016-12-23T04:01:01.431Z,1.03
2016-12-23T04:02:10.132Z,1.06
2016-12-23T04:03:18.823Z,1
2016-12-23T04:04:27.521Z,0.96
2016-12-23T04:05:36.212Z,0.95
2016-12-23T04:06:44.908Z,0.95
2016-12-23T04:07:53.596Z,0.92
2016-12-23T04:09:02.287Z,0.94
2016-12-23T04:10:10.984Z,0.95
2016-12-23T04:11:19.726Z,1.03
2016-12-23T04:12:28.413Z,1.03
2016-12-23T04:13:37.149Z,1
2016-12-23T04:14:45.845Z,1.03
2016-12-23T04:15:54.538Z,1
2016-12-23T04:17:03.230Z,0.96
2016-12-23T04:18:11.923Z,0.88
2016-12-23T04:19:20.614Z,0.78
2016-12-23T04:20:29.625Z,0.84
2016-12-23T04:21:38.318Z,0.78
2016-12-23T04:22:47.010Z,0.71
2016-12-23T04:23:55.710Z,0.74
2016-12-23T04:25:04.399Z,0.7
2016-12-23T04:26:13.094Z,0.67
2016-12-23T04:27:21.782Z,0.66
2016-12-23T04:28:30.478Z,0.61
2016-12-23T04:29:39.165Z,0.61
2016-12-23T04:30:47.858Z,0.56
2016-12-23T04:31:56.546Z,0.58
2016-12-23T04:33:05.232Z,0.48
2016-12-23T04:34:13.922Z,0.49
2016-12-23T04:35:22.618Z,0.63
2016-12-23T04:36:31.314Z,0.51
2016-12-23T04:37:40.032Z,0.56
2016-12-23T04:38:48.727Z,0.49
2016-12-23T04:39:57.518Z,0.48
2016-12-23T04:41:06.213Z,0.59
2016-12-23T04:42:14.913Z,0.52
2016-12-23T04:43:23.608Z,0.51
2016-12-23T04:44:32.304Z,0.63
2016-12-23T04:45:41.313Z,0.59
2016-12-23T04:46:50.001Z,0.61
2016-12-23T04:47:58.694Z,0.67
2016-12-23T04:49:07.392Z,0.56
2016-12-23T04:50:16.085Z,0.55
2016-12-23T04:51:24.777Z,0.56
2016-12-23T04:52:33.471Z,0.47
2016-12-23T04:53:42.161Z,0.66
2016-12-23T04:54:50.854Z,0.51
2016-12-23T04:55:59.545Z,0.47
2016-12-23T04:57:08.235Z,0.47
2016-12-23T04:58:16.924Z,0.56
2016-12-23T04:59:25.614Z,0.48
2016-12-23T05:00:34.304Z,0.44
2016-12-23T05:01:42.996Z,0.48
2016-12-23T05:02:51.689Z,0.48
2016-12-23T05:04:00.413Z,0.51
2016-12-23T05:05:09.105Z,0.48
2016-12-23T05:06:17.792Z,0.56
2016-12-23T05:07:26.479Z,0.55
2016-12-23T05:08:35.170Z,0.49
2016-12-23T05:09:43.865Z,0.51
2016-12-23T05:10:52.555Z,0.49
2016-12-23T05:12:01.248Z,0.56
2016-12-23T05:13:09.944Z,0.64
2016-12-23T05:14:18.636Z,0.67
2016-12-23T05:15:27.328Z,0.59
2016-12-23T05:16:36.020Z,0.7
2016-12-23T05:17:44.739Z,0.7
2016-12-23T05:18:53.432Z,0.71
2016-12-23T05:20:02.123Z,0.74
2016-12-23T05:21:10.814Z,0.76
2016-12-23T05:22:19.507Z,0.66
2016-12-23T05:23:28.207Z,0.76
2016-12-23T05:24:36.916Z,0.64
2016-12-23T05:25:45.606Z,0.68
2016-12-23T05:26:54.320Z,0.66
2016-12-23T05:28:03.014Z,0.68
2016-12-23T05:29:11.709Z,0.67
2016-12-23T05:30:20.400Z,0.7
2016-12-23T05:31:29.097Z,0.67
2016-12-23T05:32:37.814Z,0.61
2016-12-23T05:33:46.505Z,0.74
2016-12-23T05:34:55.197Z,0.58
2016-12-23T05:36:03.888Z,0.59
2016-12-23T05:37:12.583Z,0.64
2016-12-23T05:38:21.274Z,0.63
2016-12-23T05:39:29.964Z,0.51
2016-12-23T05:40:38.684Z,0.59
2016-12-23T05:41:47.370Z,0.59
2016-12-23T05:42:56.062Z,0.49
2016-12-23T05:44:04.758Z,0.49
2016-12-23T05:45:13.453Z,0.49
2016-12-23T05:46:22.140Z,0.48
2016-12-23T05:47:30.831Z,0.47
2016-12-23T05:48:39.522Z,0.51
2016-12-23T05:49:48.216Z,0.56
2016-12-23T05:50:56.905Z,0.49
2016-12-23T05:52:05.603Z,0.48
2016-12-23T05:53:14.296Z,0.56
2016-12-23T05:54:22.986Z,0.55
2016-12-23T05:55:31.682Z,0.55
2016-12-23T05:56:40.693Z,0.47
2016-12-23T05:57:49.388Z,0.49
2016-12-23T05:58:58.090Z,0.48
2016-12-23T06:00:06.811Z,0.37
2016-12-23T06:01:15.505Z,0.48
2016-12-23T06:02:24.218Z,0.45
2016-12-23T06:03:32.905Z,0.42
2016-12-23T06:04:41.598Z,0.34
2016-12-23T06:05:50.289Z,0.3
2016-12-23T06:06:58.981Z,0.29
2016-12-23T06:08:07.669Z,0.16
2016-12-23T06:09:16.365Z,0.09
2016-12-23T06:10:25.063Z,0.06
2016-12-23T06:11:33.754Z,0
2016-12-23T06:12:42.443Z,-0.05
2016-12-23T06:13:51.137Z,-0.05
2016-12-23T06:14:59.826Z,-0.05
2016-12-23T06:16:08.536Z,-0.07
2016-12-23T06:17:17.230Z,-0.06
2016-12-23T06:18:25.919Z,-0.1
2016-12-23T06:19:34.609Z,-0.06
2016-12-23T06:20:43.306Z,-0.06
2016-12-23T06:21:52.317Z,0.01
2016-12-23T06:23:01.009Z,0.11
2016-12-23T06:24:09.704Z,0.09
2016-12-23T06:25:18.395Z,0.11
2016-12-23T06:26:27.082Z,0.18
2016-12-23T06:27:35.796Z,0.18
2016-12-23T06:28:44.490Z,0.19
2016-12-23T06:29:53.184Z,0.06
2016-12-23T06:31:01.879Z,0.09
2016-12-23T06:32:10.569Z,0.12
2016-12-23T06:33:19.262Z,0.12
2016-12-23T06:34:27.956Z,0.05
2016-12-23T06:35:36.645Z,0.08
2016-12-23T06:36:45.333Z,-0.02
2016-12-23T06:37:54.025Z,0
2016-12-23T06:39:02.729Z,0
2016-12-23T06:40:11.423Z,-0.1
2016-12-23T06:41:20.117Z,-0.09
2016-12-23T06:42:28.805Z,-0.06
2016-12-23T06:43:37.495Z,0
2016-12-23T06:44:46.187Z,-0.1
2016-12-23T06:45:54.876Z,-0.13
2016-12-23T06:47:03.566Z,-0.13
2016-12-23T06:48:12.256Z,-0.09
2016-12-23T06:49:20.943Z,-0.07
2016-12-23T06:50:29.640Z,0
2016-12-23T06:51:38.368Z,0.06
2016-12-23T06:52:47.084Z,0
2016-12-23T06:53:55.776Z,0.06
2016-12-23T06:55:04.468Z,0.12
2016-12-23T06:56:13.163Z,0.16
2016-12-23T06:57:21.857Z,0.2
2016-12-23T06:58:30.546Z,0.2
2016-12-23T06:59:39.235Z,0.33
2016-12-23T07:00:47.938Z,0.34
2016-12-23T07:01:56.626Z,0.39
2016-12-23T07:03:05.317Z,0.42
2016-12-23T07:04:14.007Z,0.3
2016-12-23T07:05:22.703Z,0.45
2016-12-23T07:06:31.395Z,0.39
2016-12-23T07:07:40.089Z,0.4
2016-12-23T07:08:48.810Z,0.45
2016-12-23T07:09:57.501Z,0.42
2016-12-23T07:11:06.219Z,0.47
2016-12-23T07:12:14.910Z,0.47
2016-12-23T07:13:23.597Z,0.44
2016-12-23T07:14:32.288Z,0.44
2016-12-23T07:15:40.985Z,0.36
2016-12-23T07:16:49.676Z,0.31
2016-12-23T07:17:58.392Z,0.47
2016-12-23T07:19:07.086Z,0.33
2016-12-23T07:20:15.776Z,0.47
2016-12-23T07:21:24.466Z,0.44
2016-12-23T07:22:33.154Z,0.47
2016-12-23T07:23:41.844Z,0.51
2016-12-23T07:24:50.533Z,0.42
2016-12-23T07:25:59.223Z,0.56
2016-12-23T07:27:07.914Z,0.49
2016-12-23T07:28:16.614Z,0.47
2016-12-23T07:29:25.311Z,0.48
2016-12-23T07:30:34.006Z,0.49
2016-12-23T07:31:42.702Z,0.66
2016-12-23T07:32:51.404Z,0.59
2016-12-23T07:34:00.100Z,0.45
2016-12-23T07:35:08.815Z,0.49
2016-12-23T07:36:17.506Z,0.45
2016-12-23T07:37:26.199Z,0.45
2016-12-23T07:38:34.888Z,0.45
2016-12-23T07:39:43.579Z,0.36
2016-12-23T07:40:52.270Z,0.39
2016-12-23T07:42:00.962Z,0.29
2016-12-23T07:43:09.657Z,0.33
2016-12-23T07:44:18.352Z,0.29
2016-12-23T07:45:27.048Z,0.2
2016-12-23T07:46:35.737Z,0.12
2016-12-23T07:47:44.431Z,0.15
2016-12-23T07:48:53.121Z,0.13
2016-12-23T07:50:01.811Z,0.18
2016-12-23T07:51:10.502Z,0.19
2016-12-23T07:52:19.215Z,0.16
2016-12-23T07:53:27.907Z,0.2
2016-12-23T07:54:36.595Z,0.16
2016-12-23T07:55:45.602Z,0.15
2016-12-23T07:56:54.294Z,0.12
2016-12-23T07:58:02.984Z,0.08
2016-12-23T07:59:11.676Z,0.06
2016-12-23T08:00:20.367Z,-0.05
2016-12-23T08:01:29.059Z,0.12
2016-12-23T08:02:37.758Z,0.15
2016-12-23T08:03:46.452Z,0.02
2016-12-23T08:04:55.142Z,0.11
2016-12-23T08:06:03.834Z,0.12
2016-12-23T08:07:12.527Z,0.13
2016-12-23T08:08:21.215Z,0.36
2016-12-23T08:09:30.222Z,0.36
2016-12-23T08:10:38.916Z,0.42
2016-12-23T08:11:47.613Z,0.4
2016-12-23T08:12:56.306Z,0.42
2016-12-23T08:14:05.005Z,0.44
2016-12-23T08:15:13.692Z,0.37
2016-12-23T08:16:22.381Z,0.44
2016-12-23T08:17:31.103Z,0.47
2016-12-23T08:18:39.808Z,0.44
2016-12-23T08:19:48.502Z,0.37
2016-12-23T08:20:57.188Z,0.39
2016-12-23T08:22:05.885Z,0.34
2016-12-23T08:23:14.572Z,0.3
2016-12-23T08:24:23.262Z,0.29
2016-12-23T08:25:31.956Z,0.19
2016-12-23T08:26:40.646Z,0.19
2016-12-23T08:27:49.341Z,0.16
2016-12-23T08:28:58.029Z,0.06
2016-12-23T08:30:06.725Z,0.11
2016-12-23T08:31:15.413Z,0.09
2016-12-23T08:32:24.131Z,0.13
2016-12-23T08:33:32.849Z,0.05
2016-12-23T08:34:41.539Z,-0.05
2016-12-23T08:35:50.227Z,0.01
2016-12-23T08:36:58.919Z,0.05
2016-12-23T08:38:07.614Z,0.16
2016-12-23T08:39:16.304Z,0.02
2016-12-23T08:40:25.000Z,0.09
2016-12-23T08:41:33.689Z,-0.02
2016-12-23T08:42:42.378Z,0.12
2016-12-23T08:43:51.071Z,0.01
2016-12-23T08:44:59.762Z,0.06
2016-12-23T08:46:08.454Z,-0.03
2016-12-23T08:47:17.151Z,-0.03
2016-12-23T08:48:25.843Z,-0.06
2016-12-23T08:49:34.543Z,0.02
2016-12-23T08:50:43.229Z,0.02
2016-12-23T08:51:51.920Z,0.02
2016-12-23T08:53:00.610Z,0.02
2016-12-23T08:54:09.305Z,0.09
2016-12-23T08:55:17.998Z,0.08
2016-12-23T08:56:26.713Z,0.09
2016-12-23T08:57:35.403Z,0.01
2016-12-23T08:58:44.090Z,0.09
2016-12-23T08:59:52.812Z,0.09
2016-12-23T09:01:01.505Z,0
2016-12-23T09:02:10.197Z,0.05
2016-12-23T09:03:18.893Z,0.02
2016-12-23T09:04:27.583Z,0.09
2016-12-23T09:05:36.276Z,0.06
2016-12-23T09:06:44.968Z,0.08
2016-12-23T09:07:53.657Z,0.05
2016-12-23T09:09:02.399Z,0.08
2016-12-23T09:10:11.087Z,0.19
2016-12-23T09:11:19.776Z,0.16
2016-12-23T09:12:28.470Z,0.18
2016-12-23T09:13:37.160Z,0.09
2016-12-23T09:14:45.849Z,0.26
2016-12-23T09:15:54.539Z,0.31
2016-12-23T09:17:03.229Z,0.33
2016-12-23T09:18:11.919Z,0.29
2016-12-23T09:19:20.611Z,0.31
2016-12-23T09:20:29.305Z,0.33
2016-12-23T09:21:37.994Z,0.37
2016-12-23T09:22:46.687Z,0.37
2016-12-23T09:23:55.404Z,0.36
2016-12-23T09:25:04.094Z,0.42
2016-12-23T09:26:12.789Z,0.34
2016-12-23T09:27:21.480Z,0.45
2016-12-23T09:28:30.173Z,0.44
2016-12-23T09:29:38.865Z,0.4
2016-12-23T09:30:47.556Z,0.33
2016-12-23T09:31:56.248Z,0.34
2016-12-23T09:33:04.941Z,0.36
2016-12-23T09:34:13.636Z,0.31
2016-12-23T09:35:22.356Z,0.29
2016-12-23T09:36:31.047Z,0.3
2016-12-23T09:37:39.736Z,0.33
2016-12-23T09:38:48.426Z,0.33
2016-12-23T09:39:57.115Z,0.37
2016-12-23T09:41:05.805Z,0.34
2016-12-23T09:42:14.497Z,0.47
2016-12-23T09:43:23.189Z,0.36
2016-12-23T09:44:31.880Z,0.47
2016-12-23T09:45:40.575Z,0.49
2016-12-23T09:46:49.265Z,0.47
2016-12-23T09:47:57.960Z,0.55
2016-12-23T09:49:06.652Z,0.47
2016-12-23T09:50:15.344Z,0.55
2016-12-23T09:51:24.048Z,0.48
2016-12-23T09:52:32.751Z,0.45
2016-12-23T09:53:41.450Z,0.51
2016-12-23T09:54:50.147Z,0.49
2016-12-23T09:55:58.837Z,0.56
2016-12-23T09:57:07.529Z,0.52
2016-12-23T09:58:16.219Z,0.58
2016-12-23T09:59:24.911Z,0.64
2016-12-23T10:00:33.602Z,0.68
2016-12-23T10:01:42.321Z,0.58
2016-12-23T10:02:51.009Z,0.7
2016-12-23T10:03:59.699Z,0.66
2016-12-23T10:05:08.390Z,0.73
2016-12-23T10:06:17.113Z,0.76
2016-12-23T10:07:25.832Z,0.88
2016-12-23T10:08:34.527Z,0.92
2016-12-23T10:09:43.229Z,0.88
2016-12-23T10:10:51.946Z,0.95
2016-12-23T10:12:00.636Z,1.02
2016-12-23T10:13:09.327Z,1.02
2016-12-23T10:14:18.039Z,1.12
2016-12-23T10:15:26.727Z,1.16
2016-12-23T10:16:35.424Z,1.18
2016-12-23T10:17:44.123Z,1.2
2016-12-23T10:18:52.821Z,1.27
2016-12-23T10:20:01.511Z,1.27
2016-12-23T10:21:10.204Z,1.25
2016-12-23T10:22:18.894Z,1.22
2016-12-23T10:23:27.584Z,1.25
2016-12-23T10:24:36.277Z,1.21
2016-12-23T10:25:44.974Z,1.28
2016-12-23T10:26:53.661Z,1.28
2016-12-23T10:28:02.357Z,1.31
2016-12-23T10:29:11.076Z,1.25
2016-12-23T10:30:19.766Z,1.3
2016-12-23T10:31:28.461Z,1.36
2016-12-23T10:32:37.154Z,1.31
2016-12-23T10:33:45.846Z,1.39
2016-12-23T10:34:54.536Z,1.46
2016-12-23T10:36:03.235Z,1.6
2016-12-23T10:37:11.924Z,1.76
2016-12-23T10:38:20.621Z,1.81
2016-12-23T10:39:29.314Z,1.95
2016-12-23T10:40:38.008Z,2.03
2016-12-23T10:41:46.702Z,2.14
2016-12-23T10:42:55.393Z,2.21
2016-12-23T10:44:04.086Z,2.22
2016-12-23T10:45:12.779Z,2.26
2016-12-23T10:46:21.468Z,2.33
2016-12-23T10:47:30.164Z,2.26
2016-12-23T10:48:38.858Z,2.36
2016-12-23T10:49:47.552Z,2.37
2016-12-23T10:50:56.245Z,2.52
2016-12-23T10:52:04.940Z,2.59
2016-12-23T10:53:13.637Z,2.72
2016-12-23T10:54:22.334Z,2.75
2016-12-23T10:55:31.026Z,2.87
2016-12-23T10:56:39.720Z,2.93
2016-12-23T10:57:48.741Z,2.95
2016-12-23T10:58:57.444Z,3
2016-12-23T11:00:06.455Z,3.03
2016-12-23T11:01:15.153Z,3.15
2016-12-23T11:02:23.852Z,3.22
2016-12-23T11:03:32.864Z,3.33
2016-12-23T11:04:41.556Z,3.31
2016-12-23T11:05:50.251Z,3.33
2016-12-23T11:06:58.948Z,3.43
2016-12-23T11:08:07.649Z,3.55
2016-12-23T11:09:16.367Z,3.55
2016-12-23T11:10:25.060Z,3.63
2016-12-23T11:11:33.783Z,3.61
2016-12-23T11:12:42.481Z,3.58
2016-12-23T11:13:51.181Z,3.68
2016-12-23T11:14:59.889Z,3.71
2016-12-23T11:16:08.585Z,3.67
2016-12-23T11:17:17.277Z,3.66
2016-12-23T11:18:25.971Z,3.7
2016-12-23T11:19:34.671Z,3.78
2016-12-23T11:20:43.364Z,3.77
2016-12-23T11:21:52.057Z,3.74
2016-12-23T11:23:00.760Z,3.81
2016-12-23T11:24:09.456Z,3.76
2016-12-23T11:25:18.158Z,3.78
2016-12-23T11:26:26.861Z,3.82
2016-12-23T11:27:35.562Z,3.92
2016-12-23T11:28:44.261Z,3.91
2016-12-23T11:29:52.957Z,3.99
2016-12-23T11:31:01.651Z,4.03
2016-12-23T11:32:10.351Z,4.06
2016-12-23T11:33:19.049Z,4.04
2016-12-23T11:34:27.745Z,4.1
2016-12-23T11:35:36.442Z,4.07
2016-12-23T11:36:45.136Z,4.07
2016-12-23T11:37:53.834Z,4.06
2016-12-23T11:39:02.535Z,4.04
2016-12-23T11:40:11.232Z,4.13
2016-12-23T11:41:19.930Z,4.1
2016-12-23T11:42:28.625Z,4.07
2016-12-23T11:43:37.321Z,4.16
2016-12-23T11:44:46.024Z,4.2
2016-12-23T11:45:54.757Z,4.13
2016-12-23T11:47:03.457Z,4.16
2016-12-23T11:48:12.158Z,4.2
2016-12-23T11:49:20.853Z,4.27
2016-12-23T11:50:29.551Z,4.14
2016-12-23T11:51:38.248Z,4.09
2016-12-23T11:52:46.979Z,3.96
2016-12-23T11:53:55.681Z,3.95
2016-12-23T11:55:04.382Z,3.81
2016-12-23T11:56:13.076Z,3.82
2016-12-23T11:57:21.772Z,3.74
2016-12-23T11:58:30.472Z,3.58
2016-12-23T11:59:39.174Z,3.53
2016-12-23T12:00:47.875Z,3.46
2016-12-23T12:01:56.570Z,3.26
2016-12-23T12:03:05.268Z,3.18
2016-12-23T12:04:13.964Z,3.05
2016-12-23T12:05:22.663Z,3.06
2016-12-23T12:06:31.358Z,2.93
2016-12-23T12:07:40.052Z,2.85
2016-12-23T12:08:48.745Z,2.93
2016-12-23T12:09:57.443Z,2.87
2016-12-23T12:11:06.135Z,2.76
2016-12-23T12:12:14.828Z,2.77
2016-12-23T12:13:23.525Z,2.79
2016-12-23T12:14:32.227Z,2.68
2016-12-23T12:15:40.925Z,2.75
2016-12-23T12:16:49.941Z,2.62
2016-12-23T12:17:58.639Z,2.68
2016-12-23T12:19:07.333Z,2.64
2016-12-23T12:20:16.028Z,2.59
2016-12-23T12:21:24.725Z,2.55
2016-12-23T12:22:33.424Z,2.52
2016-12-23T12:23:42.221Z,2.52
2016-12-23T12:24:50.913Z,2.5
2016-12-23T12:25:59.606Z,2.52
2016-12-23T12:27:08.308Z,2.47
2016-12-23T12:28:17.001Z,2.52
2016-12-23T12:29:25.695Z,2.47
2016-12-23T12:30:34.422Z,2.52
2016-12-23T12:31:43.117Z,2.47
2016-12-23T12:32:52.128Z,2.51
2016-12-23T12:34:00.823Z,2.54
2016-12-23T12:35:09.516Z,2.51
2016-12-23T12:36:18.219Z,2.54
2016-12-23T12:37:26.940Z,2.47
2016-12-23T12:38:35.630Z,2.52
2016-12-23T12:39:44.324Z,2.46
2016-12-23T12:40:53.019Z,2.51
2016-12-23T12:42:01.720Z,2.5
2016-12-23T12:43:10.410Z,2.54
2016-12-23T12:44:19.103Z,2.51
2016-12-23T12:45:27.799Z,2.46
2016-12-23T12:46:36.497Z,2.5
2016-12-23T12:47:45.193Z,2.51
2016-12-23T12:48:53.884Z,2.58
2016-12-23T12:50:02.576Z,2.55
2016-12-23T12:51:11.276Z,2.58
2016-12-23T12:52:19.969Z,2.59
2016-12-23T12:53:28.662Z,2.59
2016-12-23T12:54:37.356Z,2.57
2016-12-23T12:55:46.051Z,2.55
2016-12-23T12:56:54.748Z,2.57
2016-12-23T12:58:03.440Z,2.54
2016-12-23T12:59:12.136Z,2.55
2016-12-23T13:00:20.831Z,2.44
2016-12-23T13:01:29.551Z,2.5
2016-12-23T13:02:38.565Z,2.54
2016-12-23T13:03:47.260Z,2.47
2016-12-23T13:04:55.954Z,2.46
2016-12-23T13:06:04.645Z,2.46
2016-12-23T13:07:13.339Z,2.51
2016-12-23T13:08:22.032Z,2.59
2016-12-23T13:09:30.726Z,2.55
2016-12-23T13:10:39.417Z,2.52
2016-12-23T13:11:48.126Z,2.64
2016-12-23T13:12:56.818Z,2.55
2016-12-23T13:14:05.512Z,2.62
2016-12-23T13:15:14.203Z,2.58
2016-12-23T13:16:22.897Z,2.58
2016-12-23T13:17:31.589Z,2.54
2016-12-23T13:18:40.317Z,2.55
2016-12-23T13:19:49.012Z,2.55
2016-12-23T13:20:57.705Z,2.54
2016-12-23T13:22:06.426Z,2.47
2016-12-23T13:23:15.120Z,2.5
2016-12-23T13:24:23.813Z,2.43
2016-12-23T13:25:32.505Z,2.41
2016-12-23T13:26:41.512Z,2.36
2016-12-23T13:27:50.211Z,2.4
2016-12-23T13:28:58.911Z,2.36
2016-12-23T13:30:07.608Z,2.33
2016-12-23T13:31:16.302Z,2.18
2016-12-23T13:32:24.999Z,2.3
2016-12-23T13:33:33.699Z,2.28
2016-12-23T13:34:42.390Z,2.15
2016-12-23T13:35:51.080Z,2.23
2016-12-23T13:36:59.773Z,2.39
2016-12-23T13:38:08.468Z,2.23
2016-12-23T13:39:17.159Z,2.36
2016-12-23T13:40:25.877Z,2.33
2016-12-23T13:41:34.570Z,2.23
2016-12-23T13:42:43.265Z,2.22
2016-12-23T13:43:52.008Z,2.28
2016-12-23T13:45:00.702Z,2.32
2016-12-23T13:46:09.393Z,2.33
2016-12-23T13:47:18.090Z,2.33
2016-12-23T13:48:26.812Z,2.28
2016-12-23T13:49:35.508Z,2.34
2016-12-23T13:50:44.204Z,2.32
2016-12-23T13:51:52.895Z,2.21
2016-12-23T13:53:01.589Z,2.26
2016-12-23T13:54:10.282Z,2.19
2016-12-23T13:55:18.984Z,2.18
2016-12-23T13:56:27.678Z,2.07
2016-12-23T13:57:36.378Z,2.12
2016-12-23T13:58:45.100Z,2.14
2016-12-23T13:59:53.796Z,2.12
2016-12-23T14:01:02.487Z,2.1
2016-12-23T14:02:11.181Z,2.04
2016-12-23T14:03:19.874Z,2
2016-12-23T14:04:28.570Z,2.04
2016-12-23T14:05:37.266Z,2.12
2016-12-23T14:06:45.965Z,2.04
2016-12-23T14:07:54.659Z,2.05
2016-12-23T14:09:03.379Z,2.05
2016-12-23T14:10:12.081Z,2.1
2016-12-23T14:11:20.774Z,2.04
2016-12-23T14:12:29.474Z,2.1
2016-12-23T14:13:38.168Z,2.07
2016-12-23T14:14:46.858Z,2.1
2016-12-23T14:15:55.552Z,2.18
2016-12-23T14:17:04.252Z,2.16
2016-12-23T14:18:12.945Z,2.12
2016-12-23T14:19:21.635Z,2.22
2016-12-23T14:20:30.324Z,2.07
2016-12-23T14:21:39.015Z,2.19
2016-12-23T14:22:47.708Z,2.16
2016-12-23T14:23:56.404Z,2.18
2016-12-23T14:25:05.097Z,2.3
2016-12-23T14:26:13.799Z,2.28
2016-12-23T14:27:22.491Z,2.34
2016-12-23T14:28:31.270Z,2.43
2016-12-23T14:29:40.111Z,2.4
2016-12-23T14:30:49.282Z,2.4
2016-12-23T14:32:13.517Z,2.41
2016-12-23T14:33:22.725Z,2.39
2016-12-23T14:34:31.571Z,2.46
2016-12-23T14:35:40.424Z,2.51
2016-12-23T14:36:49.268Z,2.5
2016-12-23T14:37:58.133Z,2.43
2016-12-23T14:39:06.974Z,2.52
2016-12-23T14:40:15.816Z,2.61
2016-12-23T14:41:24.658Z,2.57
2016-12-23T14:42:33.498Z,2.59
2016-12-23T14:43:42.339Z,2.65
2016-12-23T14:44:51.183Z,2.69
2016-12-23T14:46:00.021Z,2.79
2016-12-23T14:47:08.863Z,2.75
2016-12-23T14:48:17.730Z,2.72
2016-12-23T14:49:26.567Z,2.73
2016-12-23T14:50:35.408Z,2.72
2016-12-23T14:51:44.256Z,2.72
2016-12-23T14:52:53.103Z,2.77
2016-12-23T14:54:01.906Z,2.87
2016-12-23T14:55:10.635Z,2.75
2016-12-23T14:56:19.328Z,2.88
2016-12-23T14:57:28.024Z,2.83
2016-12-23T14:58:36.757Z,2.85
2016-12-23T14:59:45.765Z,2.87
2016-12-23T15:00:54.464Z,2.88
2016-12-23T15:02:03.155Z,2.94
2016-12-23T15:03:11.851Z,2.87
2016-12-23T15:04:20.544Z,2.88
2016-12-23T15:05:29.240Z,2.9
2016-12-23T15:06:37.931Z,2.95
2016-12-23T15:07:46.625Z,2.98
2016-12-23T15:08:55.316Z,3.01
2016-12-23T15:10:04.010Z,2.85
2016-12-23T15:11:12.707Z,2.97
2016-12-23T15:12:21.402Z,2.97
2016-12-23T15:13:30.096Z,2.88
2016-12-23T15:14:38.790Z,2.88
2016-12-23T15:15:47.492Z,2.98
2016-12-23T15:16:56.186Z,2.98
2016-12-23T15:18:04.884Z,2.88